Terminal Aerodrome Forecast
Issued by NWS

Home | Current Version | Previous Version | Text Only | Print | Product List | Glossary On
Versions: 1 2 3 4 5 6 7 8 9 10 11 12 13 14
000
FTUS43 KICT 170500
TAFCNU
TAF
KCNU 170522Z 1706/1806 12005KT P6SM SCT025
     FM170800 15006KT 4SM BR VCTS SCT010 OVC020CB
     FM171500 19007KT P6SM VCTS BKN030CB
      TEMPO 1715/1718 OVC020CB
     FM172300 15006KT P6SM SCT035=

USA.gov is the U.S. government's official web portal to all federal, state and local government web resources and services.